PWSweather.com
Personal Weather Stations
Station Observations
WEBSTRMN
Downtown Webster, Mn Usa, Webster, MN 55088

Downtown Webster, Mn UsaWebster, MN 55088

Lat: 44.53, Lon: -93.35

Elevation: 1099

Station Type: Vantage Pro II

www.WebsterWeatherLIVE.com

High Low Average
Temperature 51.5°F10.8°C 34.4°F1.3°C 39.5°F4.2°C
Dew Point 50.4°F10.2°C 31.1°F-0.5°C 35.6°F2.0°C
Winds 10.4 mph 16.7 kmh 0.1 mph 0.2 kmh 5.0 mph WNW8.0 kmh WNW
Wind Gusts 21.4 mph34.4 kmh -- 11.0 mph17.7 kmh
Humidity 96% 73% 86%
Pressure 30.09 in1019.0 mb 29.16 in987.5 mb -
Precipitation 0.27 in6.9 mm - -
Hour Temp Dew Point Humidity Winds Wind Gusts Pressure Precip Precip Rate Daily Precip Total
12:00 AM 51.5°F10.8°C 50.4°F10.2°C 96% 0.9 mph NNW1.4 kmh NNW 1.0 mph1.6 kmh 29.17 in987.8 mb 0.00 in0.0 mm 0.00 in/hr0.0 mm/hr 0.00 in0.0 mm
12:10 AM 51.5°F10.8°C 50.4°F10.2°C 96% 1.1 mph NNW1.8 kmh NNW 2.0 mph3.2 kmh 29.17 in987.8 mb 0.00 in0.0 mm 0.00 in/hr0.0 mm/hr 0.00 in0.0 mm
12:20 AM 50.9°F10.5°C 49.8°F9.9°C 96% 0.1 mph NW0.2 kmh NW -- 29.16 in987.5 mb 0.00 in0.0 mm 0.00 in/hr0.0 mm/hr 0.00 in0.0 mm
12:30 AM 50.5°F10.3°C 49.4°F9.7°C 96% 4.7 mph NW7.6 kmh NW 7.1 mph11.4 kmh 29.16 in987.5 mb 0.01 in0.3 mm 0.06 in/hr1.5 mm/hr 0.01 in0.3 mm
12:40 AM 50.4°F10.2°C 49.3°F9.6°C 96% 0.1 mph WNW0.2 kmh WNW 2.0 mph3.2 kmh 29.16 in987.5 mb 0.01 in0.3 mm 0.06 in/hr1.5 mm/hr 0.01 in0.3 mm
12:50 AM 50.2°F10.1°C 49.1°F9.5°C 96% 1.3 mph WSW2.1 kmh WSW 4.1 mph6.6 kmh 29.16 in987.5 mb 0.00 in0.0 mm 0.00 in/hr0.0 mm/hr 0.01 in0.3 mm
01:00 AM 49.0°F9.4°C 47.9°F8.8°C 96% 3.8 mph W6.1 kmh W 6.1 mph9.8 kmh 29.17 in987.8 mb 0.01 in0.3 mm 0.01 in/hr0.3 mm/hr 0.02 in0.5 mm
01:10 AM 47.5°F8.6°C 46.4°F8.0°C 96% 6.0 mph WNW9.7 kmh WNW 10.2 mph16.4 kmh 29.18 in988.1 mb 0.03 in0.8 mm 0.18 in/hr4.6 mm/hr 0.05 in1.3 mm
01:20 AM 46.7°F8.2°C 45.6°F7.6°C 96% 5.5 mph WNW8.9 kmh WNW 6.1 mph9.8 kmh 29.17 in987.8 mb 0.02 in0.5 mm 0.12 in/hr3.0 mm/hr 0.07 in1.8 mm
01:30 AM 46.2°F7.9°C 45.1°F7.3°C 96% 2.8 mph NW4.5 kmh NW 12.2 mph19.6 kmh 29.18 in988.1 mb 0.02 in0.5 mm 0.12 in/hr3.0 mm/hr 0.09 in2.3 mm
01:40 AM 45.8°F7.7°C 44.7°F7.1°C 96% 2.3 mph W3.7 kmh W 11.2 mph18.0 kmh 29.18 in988.1 mb 0.01 in0.3 mm 0.06 in/hr1.5 mm/hr 0.10 in2.5 mm
01:50 AM 45.2°F7.3°C 44.2°F6.8°C 96% 3.8 mph WNW6.1 kmh WNW 15.3 mph24.6 kmh 29.20 in988.8 mb 0.01 in0.3 mm 0.06 in/hr1.5 mm/hr 0.10 in2.5 mm
02:00 AM 44.4°F6.9°C 43.0°F6.1°C 95% 5.4 mph W8.7 kmh W 14.3 mph23.0 kmh 29.20 in988.8 mb 0.02 in0.5 mm 0.02 in/hr0.5 mm/hr 0.13 in3.3 mm
02:10 AM 43.8°F6.6°C 42.4°F5.8°C 95% 8.6 mph NW13.8 kmh NW 12.2 mph19.6 kmh 29.20 in988.8 mb 0.01 in0.3 mm 0.06 in/hr1.5 mm/hr 0.13 in3.3 mm
02:20 AM 43.4°F6.3°C 42.1°F5.6°C 95% 4.9 mph NW7.9 kmh NW 13.3 mph21.4 kmh 29.21 in989.2 mb 0.01 in0.3 mm 0.06 in/hr1.5 mm/hr 0.14 in3.6 mm
02:30 AM 43.1°F6.2°C 41.8°F5.4°C 95% 4.6 mph NW7.4 kmh NW 10.2 mph16.4 kmh 29.22 in989.5 mb 0.00 in0.0 mm 0.00 in/hr0.0 mm/hr 0.14 in3.6 mm
02:40 AM 42.8°F6.0°C 41.4°F5.2°C 95% 8.6 mph WNW13.8 kmh WNW 10.2 mph16.4 kmh 29.23 in989.8 mb 0.00 in0.0 mm 0.00 in/hr0.0 mm/hr 0.14 in3.6 mm
02:50 AM 42.7°F5.9°C 41.4°F5.2°C 95% 5.0 mph WNW8.0 kmh WNW 13.3 mph21.4 kmh 29.23 in989.8 mb 0.01 in0.3 mm 0.06 in/hr1.5 mm/hr 0.15 in3.8 mm
03:00 AM 42.3°F5.7°C 40.9°F4.9°C 95% 5.3 mph WNW8.5 kmh WNW 14.3 mph23.0 kmh 29.24 in990.2 mb 0.01 in0.3 mm 0.01 in/hr0.3 mm/hr 0.15 in3.8 mm
03:10 AM 42.0°F5.6°C 40.7°F4.8°C 95% 5.0 mph N8.0 kmh N 10.2 mph16.4 kmh 29.26 in990.9 mb 0.01 in0.3 mm 0.06 in/hr1.5 mm/hr 0.16 in4.1 mm
03:30 AM 39.5°F4.2°C 37.9°F3.3°C 94% 2.7 mph NW4.3 kmh NW 11.2 mph18.0 kmh 29.28 in991.5 mb 0.01 in0.3 mm 0.03 in/hr0.8 mm/hr 0.18 in4.6 mm
03:40 AM 39.1°F3.9°C 37.5°F3.1°C 94% 9.2 mph WNW14.8 kmh WNW 16.3 mph26.2 kmh 29.30 in992.2 mb 0.00 in0.0 mm 0.00 in/hr0.0 mm/hr 0.18 in4.6 mm
03:50 AM 38.5°F3.6°C 36.9°F2.7°C 94% 6.5 mph WNW10.5 kmh WNW 14.3 mph23.0 kmh 29.31 in992.6 mb 0.01 in0.3 mm 0.06 in/hr1.5 mm/hr 0.19 in4.8 mm
04:00 AM 38.4°F3.6°C 36.8°F2.7°C 94% 6.2 mph WNW10.0 kmh WNW 14.3 mph23.0 kmh 29.32 in992.9 mb 0.00 in0.0 mm 0.00 in/hr0.0 mm/hr 0.19 in4.8 mm
04:10 AM 37.9°F3.3°C 36.4°F2.4°C 94% 6.4 mph NW10.3 kmh NW 13.3 mph21.4 kmh 29.34 in993.6 mb 0.01 in0.3 mm 0.06 in/hr1.5 mm/hr 0.20 in5.1 mm
04:20 AM 37.4°F3.0°C 35.8°F2.1°C 94% 5.3 mph NW8.5 kmh NW 7.1 mph11.4 kmh 29.36 in994.2 mb 0.00 in0.0 mm 0.00 in/hr0.0 mm/hr 0.20 in5.1 mm
04:30 AM 36.8°F2.7°C 35.3°F1.8°C 94% 6.9 mph NW11.1 kmh NW 16.3 mph26.2 kmh 29.37 in994.6 mb 0.01 in0.3 mm 0.06 in/hr1.5 mm/hr 0.21 in5.3 mm
04:40 AM 36.2°F2.3°C 34.6°F1.4°C 94% 6.3 mph NW10.1 kmh NW 15.3 mph24.6 kmh 29.38 in994.9 mb 0.01 in0.3 mm 0.06 in/hr1.5 mm/hr 0.22 in5.6 mm
04:50 AM 35.8°F2.1°C 34.2°F1.2°C 94% 2.6 mph WNW4.2 kmh WNW 7.1 mph11.4 kmh 29.39 in995.3 mb 0.00 in0.0 mm 0.00 in/hr0.0 mm/hr 0.22 in5.6 mm
05:00 AM 35.6°F2.0°C 34.0°F1.1°C 94% 5.6 mph WNW9.0 kmh WNW 12.2 mph19.6 kmh 29.41 in995.9 mb 0.01 in0.3 mm 0.01 in/hr0.3 mm/hr 0.23 in5.8 mm
05:10 AM 35.5°F1.9°C 33.9°F1.1°C 94% 6.1 mph NW9.8 kmh NW 12.2 mph19.6 kmh 29.42 in996.3 mb 0.00 in0.0 mm 0.00 in/hr0.0 mm/hr 0.23 in5.8 mm
05:20 AM 35.5°F1.9°C 33.9°F1.1°C 94% 8.4 mph NW13.5 kmh NW 14.3 mph23.0 kmh 29.43 in996.6 mb 0.01 in0.3 mm 0.06 in/hr1.5 mm/hr 0.24 in6.1 mm
05:30 AM 35.4°F1.9°C 33.8°F1.0°C 94% 6.0 mph WNW9.7 kmh WNW 16.3 mph26.2 kmh 29.44 in997.0 mb 0.00 in0.0 mm 0.00 in/hr0.0 mm/hr 0.24 in6.1 mm
05:40 AM 35.3°F1.8°C 33.7°F0.9°C 94% 5.1 mph WNW8.2 kmh WNW 12.2 mph19.6 kmh 29.46 in997.6 mb 0.00 in0.0 mm 0.00 in/hr0.0 mm/hr 0.24 in6.1 mm
05:50 AM 35.3°F1.8°C 33.5°F0.8°C 93% 3.8 mph NW6.1 kmh NW 9.2 mph14.8 kmh 29.47 in998.0 mb 0.01 in0.3 mm 0.06 in/hr1.5 mm/hr 0.25 in6.4 mm
06:00 AM 34.9°F1.6°C 33.0°F0.6°C 93% 3.1 mph W5.0 kmh W 16.3 mph26.2 kmh 29.48 in998.3 mb 0.01 in0.3 mm 0.01 in/hr0.3 mm/hr 0.26 in6.6 mm
06:10 AM 34.4°F1.3°C 32.6°F0.3°C 93% 3.4 mph NW5.5 kmh NW 8.2 mph13.2 kmh 29.50 in999.0 mb 0.01 in0.3 mm 0.06 in/hr1.5 mm/hr 0.26 in6.6 mm
06:20 AM 34.4°F1.3°C 32.9°F0.5°C 94% 8.6 mph NW13.8 kmh NW 16.3 mph26.2 kmh 29.51 in999.3 mb 0.00 in0.0 mm 0.00 in/hr0.0 mm/hr 0.26 in6.6 mm
06:30 AM 34.4°F1.3°C 32.9°F0.5°C 94% 4.0 mph NW6.4 kmh NW 7.1 mph11.4 kmh 29.52 in999.7 mb 0.01 in0.3 mm 0.06 in/hr1.5 mm/hr 0.27 in6.9 mm
06:40 AM 34.5°F1.4°C 32.9°F0.5°C 94% 2.9 mph WNW4.7 kmh WNW 15.3 mph24.6 kmh 29.54 in1000.3 mb 0.00 in0.0 mm 0.00 in/hr0.0 mm/hr 0.27 in6.9 mm
06:50 AM 34.4°F1.3°C 32.9°F0.5°C 94% 7.1 mph WNW11.4 kmh WNW 12.2 mph19.6 kmh 29.55 in1000.7 mb 0.00 in0.0 mm 0.00 in/hr0.0 mm/hr 0.27 in6.9 mm
07:00 AM 34.6°F1.4°C 33.1°F0.6°C 94% 4.4 mph W7.1 kmh W 10.2 mph16.4 kmh 29.56 in1001.0 mb 0.00 in0.0 mm 0.00 in/hr0.0 mm/hr 0.27 in6.9 mm
07:10 AM 35.1°F1.7°C 33.3°F0.7°C 93% 8.1 mph WNW13.0 kmh WNW 11.2 mph18.0 kmh 29.58 in1001.7 mb 0.00 in0.0 mm 0.00 in/hr0.0 mm/hr 0.27 in6.9 mm
07:20 AM 35.2°F1.8°C 32.8°F0.4°C 91% 7.4 mph WNW11.9 kmh WNW 11.2 mph18.0 kmh 29.59 in1002.0 mb 0.00 in0.0 mm 0.00 in/hr0.0 mm/hr 0.27 in6.9 mm
07:30 AM 35.2°F1.8°C 32.6°F0.3°C 90% 6.4 mph SW10.3 kmh SW 13.3 mph21.4 kmh 29.60 in1002.4 mb 0.00 in0.0 mm 0.00 in/hr0.0 mm/hr 0.27 in6.9 mm
07:40 AM 35.1°F1.7°C 31.9°F-0.1°C 88% 9.8 mph NW15.8 kmh NW 18.4 mph29.6 kmh 29.62 in1003.0 mb 0.00 in0.0 mm 0.00 in/hr0.0 mm/hr 0.27 in6.9 mm
07:50 AM 35.4°F1.9°C 32.2°F0.1°C 88% 2.9 mph W4.7 kmh W 20.4 mph32.8 kmh 29.63 in1003.4 mb 0.00 in0.0 mm 0.00 in/hr0.0 mm/hr 0.27 in6.9 mm
08:00 AM 35.2°F1.8°C 32.0°F0.0°C 88% 5.6 mph NNW9.0 kmh NNW 10.2 mph16.4 kmh 29.64 in1003.7 mb 0.00 in0.0 mm 0.00 in/hr0.0 mm/hr 0.27 in6.9 mm
08:10 AM 35.4°F1.9°C 31.3°F-0.4°C 85% 6.5 mph NW10.5 kmh NW 21.4 mph34.4 kmh 29.66 in1004.4 mb 0.00 in0.0 mm 0.00 in/hr0.0 mm/hr 0.27 in6.9 mm
08:20 AM 35.0°F1.7°C 31.8°F-0.1°C 88% 5.7 mph W9.2 kmh W 13.3 mph21.4 kmh 29.67 in1004.7 mb 0.00 in0.0 mm 0.00 in/hr0.0 mm/hr 0.27 in6.9 mm
08:30 AM 35.0°F1.7°C 31.2°F-0.4°C 86% 6.7 mph W10.8 kmh W 12.2 mph19.6 kmh 29.68 in1005.1 mb 0.00 in0.0 mm 0.00 in/hr0.0 mm/hr 0.27 in6.9 mm
08:40 AM 35.5°F1.9°C 31.1°F-0.5°C 84% 5.3 mph N8.5 kmh N 11.2 mph18.0 kmh 29.69 in1005.4 mb 0.00 in0.0 mm 0.00 in/hr0.0 mm/hr 0.27 in6.9 mm
08:50 AM 35.6°F2.0°C 31.2°F-0.4°C 84% 7.3 mph WNW11.7 kmh WNW 13.3 mph21.4 kmh 29.70 in1005.8 mb 0.00 in0.0 mm 0.00 in/hr0.0 mm/hr 0.27 in6.9 mm
09:00 AM 35.6°F2.0°C 31.5°F-0.3°C 85% 9.2 mph NW14.8 kmh NW 16.3 mph26.2 kmh 29.71 in1006.1 mb 0.00 in0.0 mm 0.00 in/hr0.0 mm/hr 0.27 in6.9 mm
09:10 AM 35.9°F2.2°C 31.5°F-0.3°C 84% 7.6 mph NW12.2 kmh NW 15.3 mph24.6 kmh 29.72 in1006.4 mb 0.00 in0.0 mm 0.00 in/hr0.0 mm/hr 0.27 in6.9 mm
09:20 AM 36.3°F2.4°C 31.9°F-0.1°C 84% 2.0 mph WSW3.2 kmh WSW 15.3 mph24.6 kmh 29.73 in1006.8 mb 0.00 in0.0 mm 0.00 in/hr0.0 mm/hr 0.27 in6.9 mm
09:30 AM 36.5°F2.5°C 32.1°F0.1°C 84% 3.3 mph WNW5.3 kmh WNW 15.3 mph24.6 kmh 29.74 in1007.1 mb 0.00 in0.0 mm 0.00 in/hr0.0 mm/hr 0.27 in6.9 mm
09:40 AM 36.4°F2.4°C 32.3°F0.2°C 85% 3.1 mph WNW5.0 kmh WNW 11.2 mph18.0 kmh 29.75 in1007.5 mb 0.00 in0.0 mm 0.00 in/hr0.0 mm/hr 0.27 in6.9 mm
09:50 AM 36.4°F2.4°C 31.7°F-0.2°C 83% 10.4 mph W16.7 kmh W 20.4 mph32.8 kmh 29.76 in1007.8 mb 0.00 in0.0 mm 0.00 in/hr0.0 mm/hr 0.27 in6.9 mm
10:00 AM 36.5°F2.5°C 31.8°F-0.1°C 83% 8.3 mph NW13.4 kmh NW 15.3 mph24.6 kmh 29.77 in1008.1 mb 0.00 in0.0 mm 0.00 in/hr0.0 mm/hr 0.27 in6.9 mm
10:10 AM 36.5°F2.5°C 31.8°F-0.1°C 83% 8.2 mph NW13.2 kmh NW 18.4 mph29.6 kmh 29.78 in1008.5 mb 0.00 in0.0 mm 0.00 in/hr0.0 mm/hr 0.27 in6.9 mm
10:20 AM 36.9°F2.7°C 32.3°F0.2°C 83% 4.1 mph WNW6.6 kmh WNW 16.3 mph26.2 kmh 29.79 in1008.8 mb 0.00 in0.0 mm 0.00 in/hr0.0 mm/hr 0.27 in6.9 mm
10:30 AM 37.6°F3.1°C 32.6°F0.3°C 82% 8.0 mph NW12.9 kmh NW 16.3 mph26.2 kmh 29.80 in1009.1 mb 0.00 in0.0 mm 0.00 in/hr0.0 mm/hr 0.27 in6.9 mm
10:40 AM 37.7°F3.2°C 32.4°F0.2°C 81% 6.3 mph WNW10.1 kmh WNW 14.3 mph23.0 kmh 29.81 in1009.5 mb 0.00 in0.0 mm 0.00 in/hr0.0 mm/hr 0.27 in6.9 mm
10:50 AM 37.8°F3.2°C 32.8°F0.4°C 82% 8.9 mph WNW14.3 kmh WNW 16.3 mph26.2 kmh 29.82 in1009.8 mb 0.00 in0.0 mm 0.00 in/hr0.0 mm/hr 0.27 in6.9 mm
11:00 AM 37.8°F3.2°C 33.1°F0.6°C 83% 3.9 mph WNW6.3 kmh WNW 10.2 mph16.4 kmh 29.83 in1010.2 mb 0.00 in0.0 mm 0.00 in/hr0.0 mm/hr 0.27 in6.9 mm
11:10 AM 38.0°F3.3°C 33.6°F0.9°C 84% 3.1 mph NW5.0 kmh NW 14.3 mph23.0 kmh 29.83 in1010.2 mb 0.00 in0.0 mm 0.00 in/hr0.0 mm/hr 0.27 in6.9 mm
11:20 AM 38.0°F3.3°C 33.3°F0.7°C 83% 4.2 mph W6.8 kmh W 9.2 mph14.8 kmh 29.84 in1010.5 mb 0.00 in0.0 mm 0.00 in/hr0.0 mm/hr 0.27 in6.9 mm
11:30 AM 37.7°F3.2°C 32.7°F0.4°C 82% 4.3 mph W6.9 kmh W 10.2 mph16.4 kmh 29.85 in1010.8 mb 0.00 in0.0 mm 0.00 in/hr0.0 mm/hr 0.27 in6.9 mm
11:40 AM 38.0°F3.3°C 33.3°F0.7°C 83% 1.9 mph NW3.1 kmh NW 14.3 mph23.0 kmh 29.86 in1011.2 mb 0.00 in0.0 mm 0.00 in/hr0.0 mm/hr 0.27 in6.9 mm
11:50 AM 38.3°F3.5°C 33.3°F0.7°C 82% 4.7 mph WNW7.6 kmh WNW 10.2 mph16.4 kmh 29.86 in1011.2 mb 0.00 in0.0 mm 0.00 in/hr0.0 mm/hr 0.27 in6.9 mm
12:00 PM 38.9°F3.8°C 33.6°F0.9°C 81% 8.7 mph WSW14.0 kmh WSW 15.3 mph24.6 kmh 29.87 in1011.5 mb 0.00 in0.0 mm 0.00 in/hr0.0 mm/hr 0.27 in6.9 mm
12:10 PM 39.0°F3.9°C 33.7°F0.9°C 81% 7.7 mph NW12.4 kmh NW 18.4 mph29.6 kmh 29.87 in1011.5 mb 0.00 in0.0 mm 0.00 in/hr0.0 mm/hr 0.27 in6.9 mm
12:20 PM 39.2°F4.0°C 33.5°F0.8°C 80% 4.1 mph WSW6.6 kmh WSW 15.3 mph24.6 kmh 29.88 in1011.9 mb 0.00 in0.0 mm 0.00 in/hr0.0 mm/hr 0.27 in6.9 mm
12:30 PM 39.4°F4.1°C 33.1°F0.6°C 78% 8.4 mph NW13.5 kmh NW 15.3 mph24.6 kmh 29.89 in1012.2 mb 0.00 in0.0 mm 0.00 in/hr0.0 mm/hr 0.27 in6.9 mm
12:40 PM 39.6°F4.2°C 33.6°F0.9°C 79% 6.6 mph W10.6 kmh W 11.2 mph18.0 kmh 29.89 in1012.2 mb 0.00 in0.0 mm 0.00 in/hr0.0 mm/hr 0.27 in6.9 mm
12:50 PM 40.0°F4.4°C 34.6°F1.4°C 81% 4.6 mph NNW7.4 kmh NNW 11.2 mph18.0 kmh 29.90 in1012.5 mb 0.00 in0.0 mm 0.00 in/hr0.0 mm/hr 0.27 in6.9 mm
01:00 PM 39.8°F4.3°C 34.1°F1.2°C 80% 4.4 mph WNW7.1 kmh WNW 7.1 mph11.4 kmh 29.91 in1012.9 mb 0.00 in0.0 mm 0.00 in/hr0.0 mm/hr 0.27 in6.9 mm
01:10 PM 40.1°F4.5°C 34.4°F1.3°C 80% 4.4 mph NW7.1 kmh NW 10.2 mph16.4 kmh 29.92 in1013.2 mb 0.00 in0.0 mm 0.00 in/hr0.0 mm/hr 0.27 in6.9 mm
01:20 PM 39.7°F4.3°C 33.7°F0.9°C 79% 2.9 mph WSW4.7 kmh WSW 9.2 mph14.8 kmh 29.93 in1013.5 mb 0.00 in0.0 mm 0.00 in/hr0.0 mm/hr 0.27 in6.9 mm
01:30 PM 39.6°F4.2°C 33.6°F0.9°C 79% 5.3 mph WNW8.5 kmh WNW 14.3 mph23.0 kmh 29.94 in1013.9 mb 0.00 in0.0 mm 0.00 in/hr0.0 mm/hr 0.27 in6.9 mm
01:40 PM 40.2°F4.6°C 34.5°F1.4°C 80% 5.9 mph W9.5 kmh W 13.3 mph21.4 kmh 29.95 in1014.2 mb 0.00 in0.0 mm 0.00 in/hr0.0 mm/hr 0.27 in6.9 mm
01:50 PM 40.1°F4.5°C 33.5°F0.8°C 77% 4.3 mph WNW6.9 kmh WNW 7.1 mph11.4 kmh 29.96 in1014.6 mb 0.00 in0.0 mm 0.00 in/hr0.0 mm/hr 0.27 in6.9 mm
02:00 PM 39.8°F4.3°C 33.5°F0.8°C 78% 4.0 mph NW6.4 kmh NW 9.2 mph14.8 kmh 29.96 in1014.6 mb 0.00 in0.0 mm 0.00 in/hr0.0 mm/hr 0.27 in6.9 mm
02:10 PM 39.9°F4.4°C 33.6°F0.9°C 78% 1.7 mph WSW2.7 kmh WSW 10.2 mph16.4 kmh 29.97 in1014.9 mb 0.00 in0.0 mm 0.00 in/hr0.0 mm/hr 0.27 in6.9 mm
02:20 PM 39.8°F4.3°C 33.2°F0.7°C 77% 3.3 mph WNW5.3 kmh WNW 10.2 mph16.4 kmh 29.98 in1015.2 mb 0.00 in0.0 mm 0.00 in/hr0.0 mm/hr 0.27 in6.9 mm
02:40 PM 39.7°F4.3°C 33.4°F0.8°C 78% 6.7 mph NW10.8 kmh NW 10.2 mph16.4 kmh 29.99 in1015.6 mb 0.00 in0.0 mm 0.00 in/hr0.0 mm/hr 0.27 in6.9 mm
02:50 PM 40.1°F4.5°C 33.8°F1.0°C 78% 2.5 mph WNW4.0 kmh WNW 4.1 mph6.6 kmh 30.00 in1015.9 mb 0.00 in0.0 mm 0.00 in/hr0.0 mm/hr 0.27 in6.9 mm
03:00 PM 40.4°F4.7°C 33.8°F1.0°C 77% 4.1 mph W6.6 kmh W 7.1 mph11.4 kmh 30.00 in1015.9 mb 0.00 in0.0 mm 0.00 in/hr0.0 mm/hr 0.27 in6.9 mm
03:10 PM 40.2°F4.6°C 33.9°F1.1°C 78% 2.0 mph WNW3.2 kmh WNW 10.2 mph16.4 kmh 30.01 in1016.3 mb 0.00 in0.0 mm 0.00 in/hr0.0 mm/hr 0.27 in6.9 mm
03:20 PM 40.8°F4.9°C 33.8°F1.0°C 76% 3.9 mph NW6.3 kmh NW 12.2 mph19.6 kmh 30.01 in1016.3 mb 0.00 in0.0 mm 0.00 in/hr0.0 mm/hr 0.27 in6.9 mm
03:30 PM 40.9°F4.9°C 33.9°F1.1°C 76% 3.2 mph WNW5.1 kmh WNW 6.1 mph9.8 kmh 30.02 in1016.6 mb 0.00 in0.0 mm 0.00 in/hr0.0 mm/hr 0.27 in6.9 mm
03:40 PM 41.1°F5.1°C 33.8°F1.0°C 75% 4.5 mph NW7.2 kmh NW 15.3 mph24.6 kmh 30.02 in1016.6 mb 0.00 in0.0 mm 0.00 in/hr0.0 mm/hr 0.27 in6.9 mm
03:50 PM 40.8°F4.9°C 33.5°F0.8°C 75% 6.4 mph WNW10.3 kmh WNW 11.2 mph18.0 kmh 30.02 in1016.6 mb 0.00 in0.0 mm 0.00 in/hr0.0 mm/hr 0.27 in6.9 mm
04:00 PM 41.0°F5.0°C 33.4°F0.8°C 74% 5.5 mph W8.9 kmh W 6.1 mph9.8 kmh 30.03 in1016.9 mb 0.00 in0.0 mm 0.00 in/hr0.0 mm/hr 0.27 in6.9 mm
04:10 PM 40.9°F4.9°C 33.6°F0.9°C 75% 1.2 mph NW1.9 kmh NW 4.1 mph6.6 kmh 30.03 in1016.9 mb 0.00 in0.0 mm 0.00 in/hr0.0 mm/hr 0.27 in6.9 mm
04:20 PM 41.1°F5.1°C 33.8°F1.0°C 75% 3.1 mph W5.0 kmh W 12.2 mph19.6 kmh 30.05 in1017.6 mb 0.00 in0.0 mm 0.00 in/hr0.0 mm/hr 0.27 in6.9 mm
04:30 PM 40.9°F4.9°C 33.6°F0.9°C 75% 3.1 mph WNW5.0 kmh WNW 5.1 mph8.2 kmh 30.05 in1017.6 mb 0.00 in0.0 mm 0.00 in/hr0.0 mm/hr 0.27 in6.9 mm
04:40 PM 40.6°F4.8°C 32.9°F0.5°C 74% 3.6 mph WNW5.8 kmh WNW 10.2 mph16.4 kmh 30.06 in1017.9 mb 0.00 in0.0 mm 0.00 in/hr0.0 mm/hr 0.27 in6.9 mm
04:50 PM 40.3°F4.6°C 33.0°F0.6°C 75% 0.2 mph W0.3 kmh W 3.1 mph5.0 kmh 30.07 in1018.3 mb 0.00 in0.0 mm 0.00 in/hr0.0 mm/hr 0.27 in6.9 mm
05:00 PM 40.4°F4.7°C 33.1°F0.6°C 75% 0.2 mph NW0.3 kmh NW -- 30.07 in1018.3 mb 0.00 in0.0 mm 0.00 in/hr0.0 mm/hr 0.27 in6.9 mm
05:10 PM 40.5°F4.7°C 32.5°F0.3°C 73% 3.2 mph WNW5.1 kmh WNW 11.2 mph18.0 kmh 30.08 in1018.6 mb 0.00 in0.0 mm 0.00 in/hr0.0 mm/hr 0.27 in6.9 mm
05:20 PM 40.3°F4.6°C 32.3°F0.2°C 73% 1.7 mph WNW2.7 kmh WNW 7.1 mph11.4 kmh 30.08 in1018.6 mb 0.00 in0.0 mm 0.00 in/hr0.0 mm/hr 0.27 in6.9 mm
05:30 PM 40.0°F4.4°C 32.4°F0.2°C 74% 2.5 mph WNW4.0 kmh WNW 6.1 mph9.8 kmh 30.09 in1019.0 mb 0.00 in0.0 mm 0.00 in/hr0.0 mm/hr 0.27 in6.9 mm
05:40 PM 39.7°F4.3°C 32.5°F0.3°C 75% 3.5 mph WNW5.6 kmh WNW 5.1 mph8.2 kmh 30.09 in1019.0 mb 0.00 in0.0 mm 0.00 in/hr0.0 mm/hr 0.27 in6.9 mm
06:00 PM 39.7°F4.3°C 32.8°F0.4°C 76% Calm Calm -- 30.11 in1019.6 mb 0.00 in0.0 mm 0.00 in/hr0.0 mm/hr 0.27 in6.9 mm
06:10 PM 39.7°F4.3°C 33.1°F0.6°C 77% 0.1 mph NW0.2 kmh NW 5.1 mph8.2 kmh 30.11 in1019.6 mb 0.00 in0.0 mm 0.00 in/hr0.0 mm/hr 0.27 in6.9 mm
06:20 PM 39.7°F4.3°C 33.1°F0.6°C 77% Calm Calm -- 30.12 in1020.0 mb 0.00 in0.0 mm 0.00 in/hr0.0 mm/hr 0.27 in6.9 mm
06:30 PM 39.8°F4.3°C 33.2°F0.7°C 77% Calm Calm -- 30.12 in1020.0 mb 0.00 in0.0 mm 0.00 in/hr0.0 mm/hr 0.27 in6.9 mm
06:40 PM 39.7°F4.3°C 33.4°F0.8°C 78% 1.1 mph W1.8 kmh W 4.1 mph6.6 kmh 30.13 in1020.3 mb 0.00 in0.0 mm 0.00 in/hr0.0 mm/hr 0.27 in6.9 mm
06:50 PM 39.5°F4.2°C 33.2°F0.7°C 78% 0.9 mph WNW1.4 kmh WNW 2.0 mph3.2 kmh 30.13 in1020.3 mb 0.00 in0.0 mm 0.00 in/hr0.0 mm/hr 0.27 in6.9 mm
07:00 PM 39.3°F4.1°C 33.0°F0.6°C 78% 0.4 mph WSW0.6 kmh WSW 4.1 mph6.6 kmh 30.14 in1020.7 mb 0.00 in0.0 mm 0.00 in/hr0.0 mm/hr 0.27 in6.9 mm
07:10 PM 39.1°F3.9°C 33.1°F0.6°C 79% 0.5 mph WSW0.8 kmh WSW -- 30.14 in1020.7 mb 0.00 in0.0 mm 0.00 in/hr0.0 mm/hr 0.27 in6.9 mm
07:20 PM 38.8°F3.8°C 32.9°F0.5°C 79% Calm Calm 1.0 mph1.6 kmh 30.15 in1021.0 mb 0.00 in0.0 mm 0.00 in/hr0.0 mm/hr 0.27 in6.9 mm
07:30 PM 38.7°F3.7°C 32.4°F0.2°C 78% 0.9 mph WSW1.4 kmh WSW 4.1 mph6.6 kmh 30.16 in1021.3 mb 0.00 in0.0 mm 0.00 in/hr0.0 mm/hr 0.27 in6.9 mm
07:40 PM 38.6°F3.7°C 32.6°F0.3°C 79% Calm Calm -- 30.16 in1021.3 mb 0.00 in0.0 mm 0.00 in/hr0.0 mm/hr 0.27 in6.9 mm
07:50 PM 38.4°F3.6°C 32.5°F0.3°C 79% Calm Calm -- 30.17 in1021.7 mb 0.00 in0.0 mm 0.00 in/hr0.0 mm/hr 0.27 in6.9 mm
08:00 PM 38.3°F3.5°C 32.7°F0.4°C 80% Calm Calm -- 30.17 in1021.7 mb 0.00 in0.0 mm 0.00 in/hr0.0 mm/hr 0.27 in6.9 mm
08:10 PM 38.2°F3.4°C 32.6°F0.3°C 80% Calm Calm -- 30.17 in1021.7 mb 0.00 in0.0 mm 0.00 in/hr0.0 mm/hr 0.27 in6.9 mm
08:20 PM 38.0°F3.3°C 32.7°F0.4°C 81% 0.1 mph W0.2 kmh W 2.0 mph3.2 kmh 30.18 in1022.0 mb 0.00 in0.0 mm 0.00 in/hr0.0 mm/hr 0.27 in6.9 mm
08:30 PM 37.8°F3.2°C 32.2°F0.1°C 80% Calm Calm -- 30.19 in1022.4 mb 0.00 in0.0 mm 0.00 in/hr0.0 mm/hr 0.27 in6.9 mm
08:40 PM 37.6°F3.1°C 32.3°F0.2°C 81% Calm Calm -- 30.19 in1022.4 mb 0.00 in0.0 mm 0.00 in/hr0.0 mm/hr 0.27 in6.9 mm
08:50 PM 37.4°F3.0°C 32.5°F0.3°C 82% Calm Calm -- 30.19 in1022.4 mb 0.00 in0.0 mm 0.00 in/hr0.0 mm/hr 0.27 in6.9 mm
09:00 PM 37.3°F2.9°C 32.3°F0.2°C 82% Calm Calm 2.0 mph3.2 kmh 30.19 in1022.4 mb 0.00 in0.0 mm 0.00 in/hr0.0 mm/hr 0.27 in6.9 mm
09:10 PM 37.2°F2.9°C 32.2°F0.1°C 82% Calm Calm -- 30.19 in1022.4 mb 0.00 in0.0 mm 0.00 in/hr0.0 mm/hr 0.27 in6.9 mm
09:20 PM 36.9°F2.7°C 32.2°F0.1°C 83% Calm Calm -- 30.19 in1022.4 mb 0.00 in0.0 mm 0.00 in/hr0.0 mm/hr 0.27 in6.9 mm
09:30 PM 36.6°F2.6°C 31.9°F-0.1°C 83% Calm Calm -- 30.19 in1022.4 mb 0.00 in0.0 mm 0.00 in/hr0.0 mm/hr 0.27 in6.9 mm
09:40 PM 36.5°F2.5°C 32.1°F0.1°C 84% Calm Calm -- 30.20 in1022.7 mb 0.00 in0.0 mm 0.00 in/hr0.0 mm/hr 0.27 in6.9 mm
09:50 PM 36.4°F2.4°C 32.0°F0.0°C 84% Calm Calm -- 30.19 in1022.4 mb 0.00 in0.0 mm 0.00 in/hr0.0 mm/hr 0.27 in6.9 mm
10:00 PM 36.2°F2.3°C 32.1°F0.1°C 85% Calm Calm -- 30.20 in1022.7 mb 0.00 in0.0 mm 0.00 in/hr0.0 mm/hr 0.27 in6.9 mm
10:10 PM 36.0°F2.2°C 31.9°F-0.1°C 85% Calm Calm -- 30.20 in1022.7 mb 0.00 in0.0 mm 0.00 in/hr0.0 mm/hr 0.27 in6.9 mm
10:20 PM 35.6°F2.0°C 31.8°F-0.1°C 86% Calm Calm -- 30.20 in1022.7 mb 0.00 in0.0 mm 0.00 in/hr0.0 mm/hr 0.27 in6.9 mm
10:30 PM 35.1°F1.7°C 31.6°F-0.2°C 87% Calm Calm -- 30.20 in1022.7 mb 0.00 in0.0 mm 0.00 in/hr0.0 mm/hr 0.27 in6.9 mm
10:50 PM 34.2°F1.2°C 30.7°F-0.7°C 87% Calm Calm -- 30.20 in1022.7 mb 0.00 in0.0 mm 0.00 in/hr0.0 mm/hr 0.27 in6.9 mm
11:00 PM 33.7°F0.9°C 30.5°F-0.8°C 88% Calm Calm -- 30.21 in1023.0 mb 0.00 in0.0 mm 0.00 in/hr0.0 mm/hr 0.30 in7.6 mm
11:10 PM 33.2°F0.7°C 30.0°F-1.1°C 88% Calm Calm -- 30.21 in1023.0 mb 0.00 in0.0 mm 0.00 in/hr0.0 mm/hr 0.30 in7.6 mm
11:20 PM 32.8°F0.4°C 29.9°F-1.2°C 89% Calm Calm -- 30.21 in1023.0 mb 0.00 in0.0 mm 0.00 in/hr0.0 mm/hr 0.30 in7.6 mm
11:30 PM 32.6°F0.3°C 30.0°F-1.1°C 90% Calm Calm -- 30.21 in1023.0 mb 0.00 in0.0 mm 0.00 in/hr0.0 mm/hr 0.30 in7.6 mm
11:50 PM 32.3°F0.2°C 29.7°F-1.3°C 90% Calm Calm -- 30.21 in1023.0 mb 0.00 in0.0 mm 0.00 in/hr0.0 mm/hr 0.30 in7.6 mm